sensor_id;sensor_type;location;lat;lon;timestamp;temperature;humidity
20574;DHT22;10445;50.216;7.912;2022-12-18T00:00:35;-8.20;38.10
20574;DHT22;10445;50.216;7.912;2022-12-18T00:03:27;-8.20;38.10
20574;DHT22;10445;50.216;7.912;2022-12-18T00:06:16;-8.20;38.40
20574;DHT22;10445;50.216;7.912;2022-12-18T00:09:05;-8.20;38.80
20574;DHT22;10445;50.216;7.912;2022-12-18T00:11:54;-8.20;38.90
20574;DHT22;10445;50.216;7.912;2022-12-18T00:14:44;-8.30;38.80
20574;DHT22;10445;50.216;7.912;2022-12-18T00:17:32;-8.30;38.40
20574;DHT22;10445;50.216;7.912;2022-12-18T00:20:21;-8.30;38.70
20574;DHT22;10445;50.216;7.912;2022-12-18T00:23:12;-8.30;39.30
20574;DHT22;10445;50.216;7.912;2022-12-18T00:26:02;-8.30;38.80
20574;DHT22;10445;50.216;7.912;2022-12-18T00:28:51;-8.40;38.60
20574;DHT22;10445;50.216;7.912;2022-12-18T00:31:42;-8.40;38.40
20574;DHT22;10445;50.216;7.912;2022-12-18T00:34:31;-8.50;38.00
20574;DHT22;10445;50.216;7.912;2022-12-18T00:37:19;-8.50;37.60
20574;DHT22;10445;50.216;7.912;2022-12-18T00:40:09;-8.50;38.20
20574;DHT22;10445;50.216;7.912;2022-12-18T00:42:58;-8.50;36.90
20574;DHT22;10445;50.216;7.912;2022-12-18T00:45:46;-8.60;36.60
20574;DHT22;10445;50.216;7.912;2022-12-18T00:48:36;-8.60;36.40
20574;DHT22;10445;50.216;7.912;2022-12-18T00:51:25;-8.70;36.00
20574;DHT22;10445;50.216;7.912;2022-12-18T00:54:13;-8.70;36.00
20574;DHT22;10445;50.216;7.912;2022-12-18T00:57:02;-8.70;36.20
20574;DHT22;10445;50.216;7.912;2022-12-18T00:59:51;-8.70;36.00
20574;DHT22;10445;50.216;7.912;2022-12-18T01:02:40;-8.70;35.80
20574;DHT22;10445;50.216;7.912;2022-12-18T01:05:30;-8.70;36.20
20574;DHT22;10445;50.216;7.912;2022-12-18T01:08:19;-8.70;36.50
20574;DHT22;10445;50.216;7.912;2022-12-18T01:11:08;-8.70;37.00
20574;DHT22;10445;50.216;7.912;2022-12-18T01:13:58;-8.70;36.90
20574;DHT22;10445;50.216;7.912;2022-12-18T01:16:46;-8.70;35.40
20574;DHT22;10445;50.216;7.912;2022-12-18T01:19:35;-8.80;35.60
20574;DHT22;10445;50.216;7.912;2022-12-18T01:22:25;-8.80;35.00
20574;DHT22;10445;50.216;7.912;2022-12-18T01:25:13;-8.80;34.70
20574;DHT22;10445;50.216;7.912;2022-12-18T01:28:02;-8.90;34.80
20574;DHT22;10445;50.216;7.912;2022-12-18T01:30:51;-8.90;34.70
20574;DHT22;10445;50.216;7.912;2022-12-18T01:33:40;-8.90;34.50
20574;DHT22;10445;50.216;7.912;2022-12-18T01:36:30;-8.90;34.50
20574;DHT22;10445;50.216;7.912;2022-12-18T01:39:20;-9.00;34.10
20574;DHT22;10445;50.216;7.912;2022-12-18T01:42:12;-9.00;34.00
20574;DHT22;10445;50.216;7.912;2022-12-18T01:45:08;-9.00;33.70
20574;DHT22;10445;50.216;7.912;2022-12-18T01:48:10;-9.00;33.40
20574;DHT22;10445;50.216;7.912;2022-12-18T01:51:00;-9.10;33.30
20574;DHT22;10445;50.216;7.912;2022-12-18T01:53:49;-9.10;33.80
20574;DHT22;10445;50.216;7.912;2022-12-18T01:56:39;-9.00;34.20
20574;DHT22;10445;50.216;7.912;2022-12-18T01:59:28;-9.00;35.10
20574;DHT22;10445;50.216;7.912;2022-12-18T02:02:18;-9.00;36.00
20574;DHT22;10445;50.216;7.912;2022-12-18T02:05:08;-8.90;36.60
20574;DHT22;10445;50.216;7.912;2022-12-18T02:08:01;-8.90;36.60
20574;DHT22;10445;50.216;7.912;2022-12-18T02:10:59;-8.80;36.70
20574;DHT22;10445;50.216;7.912;2022-12-18T02:13:57;-8.80;36.60
20574;DHT22;10445;50.216;7.912;2022-12-18T02:16:52;-8.80;36.30
20574;DHT22;10445;50.216;7.912;2022-12-18T02:19:59;-8.80;36.70
20574;DHT22;10445;50.216;7.912;2022-12-18T02:23:03;-8.80;37.10
20574;DHT22;10445;50.216;7.912;2022-12-18T02:26:14;-8.70;39.60
20574;DHT22;10445;50.216;7.912;2022-12-18T02:29:07;-8.60;40.30
20574;DHT22;10445;50.216;7.912;2022-12-18T02:31:58;-8.50;40.60
20574;DHT22;10445;50.216;7.912;2022-12-18T02:34:48;-8.60;39.80
20574;DHT22;10445;50.216;7.912;2022-12-18T02:37:39;-8.60;39.30
20574;DHT22;10445;50.216;7.912;2022-12-18T02:40:29;-8.70;38.50
20574;DHT22;10445;50.216;7.912;2022-12-18T02:43:19;-8.70;38.10
20574;DHT22;10445;50.216;7.912;2022-12-18T02:46:30;-8.80;37.60
20574;DHT22;10445;50.216;7.912;2022-12-18T02:49:27;-8.80;37.20
20574;DHT22;10445;50.216;7.912;2022-12-18T02:52:27;-8.90;36.60
20574;DHT22;10445;50.216;7.912;2022-12-18T02:55:28;-8.90;37.00
20574;DHT22;10445;50.216;7.912;2022-12-18T02:58:25;-8.90;37.10
20574;DHT22;10445;50.216;7.912;2022-12-18T03:01:19;-8.90;37.40
20574;DHT22;10445;50.216;7.912;2022-12-18T03:04:14;-8.90;37.40
20574;DHT22;10445;50.216;7.912;2022-12-18T03:07:08;-8.90;37.40
20574;DHT22;10445;50.216;7.912;2022-12-18T03:09:58;-8.80;38.10
20574;DHT22;10445;50.216;7.912;2022-12-18T03:12:52;-8.80;38.80
20574;DHT22;10445;50.216;7.912;2022-12-18T03:15:46;-8.80;38.60
20574;DHT22;10445;50.216;7.912;2022-12-18T03:18:38;-8.80;38.40
20574;DHT22;10445;50.216;7.912;2022-12-18T03:21:34;-8.80;38.20
20574;DHT22;10445;50.216;7.912;2022-12-18T03:24:25;-8.70;38.10
20574;DHT22;10445;50.216;7.912;2022-12-18T03:27:18;-8.70;40.30
20574;DHT22;10445;50.216;7.912;2022-12-18T03:30:10;-8.60;42.40
20574;DHT22;10445;50.216;7.912;2022-12-18T03:33:05;-8.50;44.30
20574;DHT22;10445;50.216;7.912;2022-12-18T03:35:56;-8.40;45.00
20574;DHT22;10445;50.216;7.912;2022-12-18T03:38:45;-8.40;44.70
20574;DHT22;10445;50.216;7.912;2022-12-18T03:41:38;-8.40;44.60
20574;DHT22;10445;50.216;7.912;2022-12-18T03:44:35;-8.40;45.00
20574;DHT22;10445;50.216;7.912;2022-12-18T03:47:27;-8.40;45.00
20574;DHT22;10445;50.216;7.912;2022-12-18T03:50:22;-8.40;45.50
20574;DHT22;10445;50.216;7.912;2022-12-18T03:53:21;-8.40;45.90
20574;DHT22;10445;50.216;7.912;2022-12-18T03:56:13;-8.40;46.10
20574;DHT22;10445;50.216;7.912;2022-12-18T03:59:04;-8.40;46.00
20574;DHT22;10445;50.216;7.912;2022-12-18T04:01:56;-8.40;46.00
20574;DHT22;10445;50.216;7.912;2022-12-18T04:04:47;-8.40;46.20
20574;DHT22;10445;50.216;7.912;2022-12-18T04:07:38;-8.40;45.90
20574;DHT22;10445;50.216;7.912;2022-12-18T04:10:27;-8.30;47.50
20574;DHT22;10445;50.216;7.912;2022-12-18T04:13:22;-8.20;49.10
20574;DHT22;10445;50.216;7.912;2022-12-18T04:16:10;-8.20;48.00
20574;DHT22;10445;50.216;7.912;2022-12-18T04:18:59;-8.10;50.10
20574;DHT22;10445;50.216;7.912;2022-12-18T04:21:47;-8.00;50.90
20574;DHT22;10445;50.216;7.912;2022-12-18T04:24:37;-8.00;53.00
20574;DHT22;10445;50.216;7.912;2022-12-18T04:27:26;-7.90;54.30
20574;DHT22;10445;50.216;7.912;2022-12-18T04:30:15;-7.80;54.20
20574;DHT22;10445;50.216;7.912;2022-12-18T04:33:03;-7.80;53.30
20574;DHT22;10445;50.216;7.912;2022-12-18T04:35:52;-7.90;53.40
20574;DHT22;10445;50.216;7.912;2022-12-18T04:38:40;-7.90;52.80
20574;DHT22;10445;50.216;7.912;2022-12-18T04:41:30;-7.80;52.20
20574;DHT22;10445;50.216;7.912;2022-12-18T04:44:19;-7.90;52.30
20574;DHT22;10445;50.216;7.912;2022-12-18T04:47:08;-7.90;51.60
20574;DHT22;10445;50.216;7.912;2022-12-18T04:49:56;-7.90;51.30
20574;DHT22;10445;50.216;7.912;2022-12-18T04:52:45;-7.90;49.90
20574;DHT22;10445;50.216;7.912;2022-12-18T04:55:33;-8.00;48.40
20574;DHT22;10445;50.216;7.912;2022-12-18T04:58:23;-8.10;47.70
20574;DHT22;10445;50.216;7.912;2022-12-18T05:01:13;-8.10;47.40
20574;DHT22;10445;50.216;7.912;2022-12-18T05:04:03;-8.20;47.00
20574;DHT22;10445;50.216;7.912;2022-12-18T05:06:51;-8.20;47.10
20574;DHT22;10445;50.216;7.912;2022-12-18T05:09:40;-8.20;47.40
20574;DHT22;10445;50.216;7.912;2022-12-18T05:12:29;-8.20;47.70
20574;DHT22;10445;50.216;7.912;2022-12-18T05:15:20;-8.20;47.60
20574;DHT22;10445;50.216;7.912;2022-12-18T05:18:09;-8.10;48.30
20574;DHT22;10445;50.216;7.912;2022-12-18T05:20:57;-8.20;48.00
20574;DHT22;10445;50.216;7.912;2022-12-18T05:23:46;-8.20;47.60
20574;DHT22;10445;50.216;7.912;2022-12-18T05:26:34;-8.20;47.80
20574;DHT22;10445;50.216;7.912;2022-12-18T05:29:23;-8.20;47.60
20574;DHT22;10445;50.216;7.912;2022-12-18T05:32:13;-8.20;47.10
20574;DHT22;10445;50.216;7.912;2022-12-18T05:35:02;-8.30;47.10
20574;DHT22;10445;50.216;7.912;2022-12-18T05:37:50;-8.20;46.80
20574;DHT22;10445;50.216;7.912;2022-12-18T05:40:41;-8.30;46.70
20574;DHT22;10445;50.216;7.912;2022-12-18T05:43:31;-8.30;47.30
20574;DHT22;10445;50.216;7.912;2022-12-18T05:46:20;-8.20;47.70
20574;DHT22;10445;50.216;7.912;2022-12-18T05:49:10;-8.20;47.30
20574;DHT22;10445;50.216;7.912;2022-12-18T05:51:58;-8.20;47.60
20574;DHT22;10445;50.216;7.912;2022-12-18T05:54:47;-8.20;47.70
20574;DHT22;10445;50.216;7.912;2022-12-18T05:57:36;-8.20;48.00
20574;DHT22;10445;50.216;7.912;2022-12-18T06:00:25;-8.20;48.50
20574;DHT22;10445;50.216;7.912;2022-12-18T06:03:13;-8.20;49.30
20574;DHT22;10445;50.216;7.912;2022-12-18T06:06:12;-8.10;50.70
20574;DHT22;10445;50.216;7.912;2022-12-18T06:09:00;-8.10;51.10
20574;DHT22;10445;50.216;7.912;2022-12-18T06:11:55;-8.00;51.30
20574;DHT22;10445;50.216;7.912;2022-12-18T06:14:43;-8.00;51.40
20574;DHT22;10445;50.216;7.912;2022-12-18T06:17:33;-8.00;51.70
20574;DHT22;10445;50.216;7.912;2022-12-18T06:20:21;-8.00;52.40
20574;DHT22;10445;50.216;7.912;2022-12-18T06:23:15;-8.00;51.40
20574;DHT22;10445;50.216;7.912;2022-12-18T06:26:04;-8.10;51.00
20574;DHT22;10445;50.216;7.912;2022-12-18T06:28:53;-8.10;51.80
20574;DHT22;10445;50.216;7.912;2022-12-18T06:31:42;-8.10;52.00
20574;DHT22;10445;50.216;7.912;2022-12-18T06:34:32;-8.10;51.70
20574;DHT22;10445;50.216;7.912;2022-12-18T06:37:21;-8.10;51.30
20574;DHT22;10445;50.216;7.912;2022-12-18T06:40:13;-8.10;50.70
20574;DHT22;10445;50.216;7.912;2022-12-18T06:43:01;-8.10;50.20
20574;DHT22;10445;50.216;7.912;2022-12-18T06:45:50;-8.10;49.50
20574;DHT22;10445;50.216;7.912;2022-12-18T06:48:40;-8.10;49.50
20574;DHT22;10445;50.216;7.912;2022-12-18T06:51:28;-8.10;48.70
20574;DHT22;10445;50.216;7.912;2022-12-18T06:54:17;-8.10;48.30
20574;DHT22;10445;50.216;7.912;2022-12-18T06:57:08;-8.20;48.50
20574;DHT22;10445;50.216;7.912;2022-12-18T06:59:56;-8.10;48.60
20574;DHT22;10445;50.216;7.912;2022-12-18T07:02:45;-8.10;48.50
20574;DHT22;10445;50.216;7.912;2022-12-18T07:05:34;-8.10;48.30
20574;DHT22;10445;50.216;7.912;2022-12-18T07:08:22;-8.00;49.80
20574;DHT22;10445;50.216;7.912;2022-12-18T07:11:11;-8.00;50.70
20574;DHT22;10445;50.216;7.912;2022-12-18T07:14:01;-7.90;51.20
20574;DHT22;10445;50.216;7.912;2022-12-18T07:16:49;-7.90;52.10
20574;DHT22;10445;50.216;7.912;2022-12-18T07:19:38;-7.80;51.60
20574;DHT22;10445;50.216;7.912;2022-12-18T07:22:27;-7.80;52.20
20574;DHT22;10445;50.216;7.912;2022-12-18T07:25:15;-7.80;51.60
20574;DHT22;10445;50.216;7.912;2022-12-18T07:28:04;-7.80;50.90
20574;DHT22;10445;50.216;7.912;2022-12-18T07:30:54;-7.80;49.90
20574;DHT22;10445;50.216;7.912;2022-12-18T07:33:43;-7.80;50.10
20574;DHT22;10445;50.216;7.912;2022-12-18T07:36:32;-7.80;50.20
20574;DHT22;10445;50.216;7.912;2022-12-18T07:39:21;-7.80;50.10
20574;DHT22;10445;50.216;7.912;2022-12-18T07:42:09;-7.80;49.50
20574;DHT22;10445;50.216;7.912;2022-12-18T07:45:15;-7.80;49.30
20574;DHT22;10445;50.216;7.912;2022-12-18T07:48:05;-7.80;49.00
20574;DHT22;10445;50.216;7.912;2022-12-18T07:50:58;-7.70;49.10
20574;DHT22;10445;50.216;7.912;2022-12-18T07:53:47;-7.70;48.80
20574;DHT22;10445;50.216;7.912;2022-12-18T07:56:38;-7.70;48.30
20574;DHT22;10445;50.216;7.912;2022-12-18T07:59:27;-7.70;48.00
20574;DHT22;10445;50.216;7.912;2022-12-18T08:02:15;-7.70;47.90
20574;DHT22;10445;50.216;7.912;2022-12-18T08:05:06;-7.60;47.90
20574;DHT22;10445;50.216;7.912;2022-12-18T08:07:55;-7.50;47.20
20574;DHT22;10445;50.216;7.912;2022-12-18T08:10:44;-7.40;46.50
20574;DHT22;10445;50.216;7.912;2022-12-18T08:13:32;-7.40;45.80
20574;DHT22;10445;50.216;7.912;2022-12-18T08:16:21;-7.30;46.20
20574;DHT22;10445;50.216;7.912;2022-12-18T08:19:10;-7.10;46.20
20574;DHT22;10445;50.216;7.912;2022-12-18T08:22:00;-7.10;46.70
20574;DHT22;10445;50.216;7.912;2022-12-18T08:24:49;-6.90;46.90
20574;DHT22;10445;50.216;7.912;2022-12-18T08:27:37;-6.80;46.20
20574;DHT22;10445;50.216;7.912;2022-12-18T08:30:26;-6.70;46.20
20574;DHT22;10445;50.216;7.912;2022-12-18T08:33:15;-6.40;47.20
20574;DHT22;10445;50.216;7.912;2022-12-18T08:36:04;-6.20;46.60
20574;DHT22;10445;50.216;7.912;2022-12-18T08:38:54;-5.60;49.30
20574;DHT22;10445;50.216;7.912;2022-12-18T08:41:45;-5.10;50.10
20574;DHT22;10445;50.216;7.912;2022-12-18T08:44:56;-4.60;48.20
20574;DHT22;10445;50.216;7.912;2022-12-18T08:47:44;-4.20;45.20
20574;DHT22;10445;50.216;7.912;2022-12-18T08:50:33;-4.10;43.70
20574;DHT22;10445;50.216;7.912;2022-12-18T08:53:21;-4.20;40.70
20574;DHT22;10445;50.216;7.912;2022-12-18T08:56:22;-4.30;37.00
20574;DHT22;10445;50.216;7.912;2022-12-18T08:59:11;-4.50;27.90
20574;DHT22;10445;50.216;7.912;2022-12-18T09:02:05;-4.70;29.00
20574;DHT22;10445;50.216;7.912;2022-12-18T09:04:54;-4.70;28.70
20574;DHT22;10445;50.216;7.912;2022-12-18T09:07:44;-4.70;31.60
20574;DHT22;10445;50.216;7.912;2022-12-18T09:10:33;-4.70;30.40
20574;DHT22;10445;50.216;7.912;2022-12-18T09:13:30;-4.70;30.10
20574;DHT22;10445;50.216;7.912;2022-12-18T09:16:20;-4.90;28.80
20574;DHT22;10445;50.216;7.912;2022-12-18T09:19:16;-4.90;30.20
20574;DHT22;10445;50.216;7.912;2022-12-18T09:22:05;-5.10;27.00
20574;DHT22;10445;50.216;7.912;2022-12-18T09:24:53;-5.30;29.90
20574;DHT22;10445;50.216;7.912;2022-12-18T09:27:42;-5.20;31.40
20574;DHT22;10445;50.216;7.912;2022-12-18T09:30:32;-5.00;31.80
20574;DHT22;10445;50.216;7.912;2022-12-18T09:33:22;-4.90;31.80
20574;DHT22;10445;50.216;7.912;2022-12-18T09:36:12;-4.70;33.20
20574;DHT22;10445;50.216;7.912;2022-12-18T09:39:01;-4.40;32.30
20574;DHT22;10445;50.216;7.912;2022-12-18T09:41:56;-4.20;31.20
20574;DHT22;10445;50.216;7.912;2022-12-18T09:44:49;-4.10;27.90
20574;DHT22;10445;50.216;7.912;2022-12-18T09:47:41;-4.00;26.10
20574;DHT22;10445;50.216;7.912;2022-12-18T09:50:34;-4.10;24.20
20574;DHT22;10445;50.216;7.912;2022-12-18T09:53:28;-4.20;23.90
20574;DHT22;10445;50.216;7.912;2022-12-18T09:56:19;-4.30;22.90
20574;DHT22;10445;50.216;7.912;2022-12-18T09:59:21;-4.30;24.50
20574;DHT22;10445;50.216;7.912;2022-12-18T10:02:15;-4.40;24.00
20574;DHT22;10445;50.216;7.912;2022-12-18T10:05:10;-4.30;24.80
20574;DHT22;10445;50.216;7.912;2022-12-18T10:08:02;-4.30;23.50
20574;DHT22;10445;50.216;7.912;2022-12-18T10:10:53;-4.40;22.90
20574;DHT22;10445;50.216;7.912;2022-12-18T10:13:47;-4.40;22.90
20574;DHT22;10445;50.216;7.912;2022-12-18T10:16:47;-4.40;22.80
20574;DHT22;10445;50.216;7.912;2022-12-18T10:19:45;-4.40;23.30
20574;DHT22;10445;50.216;7.912;2022-12-18T10:22:47;-4.50;24.50
20574;DHT22;10445;50.216;7.912;2022-12-18T10:25:46;-4.40;23.10
20574;DHT22;10445;50.216;7.912;2022-12-18T10:28:39;-4.40;22.90
20574;DHT22;10445;50.216;7.912;2022-12-18T10:31:28;-4.30;24.50
20574;DHT22;10445;50.216;7.912;2022-12-18T10:34:17;-4.10;23.20
20574;DHT22;10445;50.216;7.912;2022-12-18T10:37:09;-4.10;19.50
20574;DHT22;10445;50.216;7.912;2022-12-18T10:40:13;-4.10;21.10
20574;DHT22;10445;50.216;7.912;2022-12-18T10:43:12;-4.00;21.00
20574;DHT22;10445;50.216;7.912;2022-12-18T10:46:12;-4.00;21.00
20574;DHT22;10445;50.216;7.912;2022-12-18T10:49:03;-3.70;19.20
20574;DHT22;10445;50.216;7.912;2022-12-18T10:52:05;-3.40;17.60
20574;DHT22;10445;50.216;7.912;2022-12-18T10:54:57;-3.00;15.20
20574;DHT22;10445;50.216;7.912;2022-12-18T10:57:50;-3.00;12.10
20574;DHT22;10445;50.216;7.912;2022-12-18T11:00:39;-2.80;11.40
20574;DHT22;10445;50.216;7.912;2022-12-18T11:03:31;-2.60;10.60
20574;DHT22;10445;50.216;7.912;2022-12-18T11:06:24;-2.60;9.60
20574;DHT22;10445;50.216;7.912;2022-12-18T11:09:20;-2.80;9.60
20574;DHT22;10445;50.216;7.912;2022-12-18T11:12:17;-3.10;11.50
20574;DHT22;10445;50.216;7.912;2022-12-18T11:15:15;-3.20;14.60
20574;DHT22;10445;50.216;7.912;2022-12-18T11:18:04;-3.30;14.80
20574;DHT22;10445;50.216;7.912;2022-12-18T11:20:55;-3.40;15.40
20574;DHT22;10445;50.216;7.912;2022-12-18T11:23:47;-3.50;15.00
20574;DHT22;10445;50.216;7.912;2022-12-18T11:26:37;-3.60;15.50
20574;DHT22;10445;50.216;7.912;2022-12-18T11:29:36;-3.60;17.10
20574;DHT22;10445;50.216;7.912;2022-12-18T11:32:36;-3.60;18.20
20574;DHT22;10445;50.216;7.912;2022-12-18T11:35:42;-3.50;18.40
20574;DHT22;10445;50.216;7.912;2022-12-18T11:38:35;-3.40;16.70
20574;DHT22;10445;50.216;7.912;2022-12-18T11:41:28;-3.30;16.40
20574;DHT22;10445;50.216;7.912;2022-12-18T11:44:37;-3.40;15.60
20574;DHT22;10445;50.216;7.912;2022-12-18T11:47:31;-3.40;16.90
20574;DHT22;10445;50.216;7.912;2022-12-18T11:50:31;-3.40;15.20
20574;DHT22;10445;50.216;7.912;2022-12-18T11:53:22;-3.40;16.00
20574;DHT22;10445;50.216;7.912;2022-12-18T11:56:29;-3.50;15.20
20574;DHT22;10445;50.216;7.912;2022-12-18T11:59:25;-3.50;16.20
20574;DHT22;10445;50.216;7.912;2022-12-18T12:02:29;-3.50;15.70
20574;DHT22;10445;50.216;7.912;2022-12-18T12:05:35;-3.60;15.10
20574;DHT22;10445;50.216;7.912;2022-12-18T12:08:34;-3.60;14.80
20574;DHT22;10445;50.216;7.912;2022-12-18T12:11:35;-3.50;16.30
20574;DHT22;10445;50.216;7.912;2022-12-18T12:14:44;-3.40;15.50
20574;DHT22;10445;50.216;7.912;2022-12-18T12:17:40;-3.50;15.20
20574;DHT22;10445;50.216;7.912;2022-12-18T12:20:42;-3.60;15.70
20574;DHT22;10445;50.216;7.912;2022-12-18T12:23:41;-3.60;15.70
20574;DHT22;10445;50.216;7.912;2022-12-18T12:26:45;-3.70;15.80
20574;DHT22;10445;50.216;7.912;2022-12-18T12:29:43;-3.90;14.40
20574;DHT22;10445;50.216;7.912;2022-12-18T12:32:58;-4.00;15.90
20574;DHT22;10445;50.216;7.912;2022-12-18T12:35:52;-4.20;16.40
20574;DHT22;10445;50.216;7.912;2022-12-18T12:38:45;-4.30;17.00
20574;DHT22;10445;50.216;7.912;2022-12-18T12:41:40;-4.40;17.20
20574;DHT22;10445;50.216;7.912;2022-12-18T12:44:50;-4.40;18.70
20574;DHT22;10445;50.216;7.912;2022-12-18T12:47:45;-4.40;17.90
20574;DHT22;10445;50.216;7.912;2022-12-18T12:50:36;-4.50;18.80
20574;DHT22;10445;50.216;7.912;2022-12-18T12:53:30;-4.60;18.90
20574;DHT22;10445;50.216;7.912;2022-12-18T12:56:22;-4.80;20.30
20574;DHT22;10445;50.216;7.912;2022-12-18T12:59:17;-4.90;22.30
20574;DHT22;10445;50.216;7.912;2022-12-18T13:02:14;-5.00;22.80
20574;DHT22;10445;50.216;7.912;2022-12-18T13:05:14;-5.00;23.80
20574;DHT22;10445;50.216;7.912;2022-12-18T13:08:08;-5.00;24.10
20574;DHT22;10445;50.216;7.912;2022-12-18T13:10:59;-5.00;24.80
20574;DHT22;10445;50.216;7.912;2022-12-18T13:14:03;-5.00;24.70
20574;DHT22;10445;50.216;7.912;2022-12-18T13:16:51;-5.00;25.50
20574;DHT22;10445;50.216;7.912;2022-12-18T13:19:40;-5.10;24.80
20574;DHT22;10445;50.216;7.912;2022-12-18T13:22:31;-5.10;26.60
20574;DHT22;10445;50.216;7.912;2022-12-18T13:25:32;-5.10;26.00
20574;DHT22;10445;50.216;7.912;2022-12-18T13:32:19;-5.10;26.30
20574;DHT22;10445;50.216;7.912;2022-12-18T13:35:38;-5.10;27.10
20574;DHT22;10445;50.216;7.912;2022-12-18T13:38:33;-5.00;26.90
20574;DHT22;10445;50.216;7.912;2022-12-18T13:41:24;-5.00;26.30
20574;DHT22;10445;50.216;7.912;2022-12-18T13:44:24;-5.00;26.00
20574;DHT22;10445;50.216;7.912;2022-12-18T13:47:27;-5.00;24.80
20574;DHT22;10445;50.216;7.912;2022-12-18T13:50:23;-5.00;26.00
20574;DHT22;10445;50.216;7.912;2022-12-18T13:53:24;-5.00;25.60
20574;DHT22;10445;50.216;7.912;2022-12-18T13:56:16;-5.00;25.10
20574;DHT22;10445;50.216;7.912;2022-12-18T13:59:16;-5.10;25.10
20574;DHT22;10445;50.216;7.912;2022-12-18T14:02:15;-5.10;25.30
20574;DHT22;10445;50.216;7.912;2022-12-18T14:05:19;-5.00;25.20
20574;DHT22;10445;50.216;7.912;2022-12-18T14:08:11;-5.00;25.70
20574;DHT22;10445;50.216;7.912;2022-12-18T14:11:01;-5.00;25.10
20574;DHT22;10445;50.216;7.912;2022-12-18T14:13:52;-5.00;25.10
20574;DHT22;10445;50.216;7.912;2022-12-18T14:16:43;-5.10;25.80
20574;DHT22;10445;50.216;7.912;2022-12-18T14:19:34;-5.10;26.00
20574;DHT22;10445;50.216;7.912;2022-12-18T14:22:25;-5.10;26.40
20574;DHT22;10445;50.216;7.912;2022-12-18T14:25:19;-5.10;27.10
20574;DHT22;10445;50.216;7.912;2022-12-18T14:28:13;-5.10;27.70
20574;DHT22;10445;50.216;7.912;2022-12-18T14:31:02;-5.20;27.40
20574;DHT22;10445;50.216;7.912;2022-12-18T14:33:53;-5.20;28.70
20574;DHT22;10445;50.216;7.912;2022-12-18T14:36:51;-5.20;29.30
20574;DHT22;10445;50.216;7.912;2022-12-18T14:39:41;-5.30;29.90
20574;DHT22;10445;50.216;7.912;2022-12-18T14:42:40;-5.30;30.10
20574;DHT22;10445;50.216;7.912;2022-12-18T14:45:35;-5.20;29.90
20574;DHT22;10445;50.216;7.912;2022-12-18T14:48:37;-5.20;29.80
20574;DHT22;10445;50.216;7.912;2022-12-18T14:51:28;-5.30;29.90
20574;DHT22;10445;50.216;7.912;2022-12-18T14:54:19;-5.30;30.50
20574;DHT22;10445;50.216;7.912;2022-12-18T14:57:25;-5.40;30.30
20574;DHT22;10445;50.216;7.912;2022-12-18T15:00:19;-5.50;31.30
20574;DHT22;10445;50.216;7.912;2022-12-18T15:03:08;-5.50;31.40
20574;DHT22;10445;50.216;7.912;2022-12-18T15:06:15;-5.60;32.20
20574;DHT22;10445;50.216;7.912;2022-12-18T15:09:21;-5.50;32.80
20574;DHT22;10445;50.216;7.912;2022-12-18T15:12:25;-5.50;32.70
20574;DHT22;10445;50.216;7.912;2022-12-18T15:15:46;-5.60;32.40
20574;DHT22;10445;50.216;7.912;2022-12-18T15:18:41;-5.60;32.80
20574;DHT22;10445;50.216;7.912;2022-12-18T15:21:32;-5.70;33.30
20574;DHT22;10445;50.216;7.912;2022-12-18T15:24:26;-5.70;33.90
20574;DHT22;10445;50.216;7.912;2022-12-18T15:27:24;-5.70;34.40
20574;DHT22;10445;50.216;7.912;2022-12-18T15:30:19;-5.70;34.00
20574;DHT22;10445;50.216;7.912;2022-12-18T15:33:23;-5.80;34.40
20574;DHT22;10445;50.216;7.912;2022-12-18T15:36:14;-5.80;35.60
20574;DHT22;10445;50.216;7.912;2022-12-18T15:39:13;-5.80;36.40
20574;DHT22;10445;50.216;7.912;2022-12-18T15:42:03;-5.80;37.00
20574;DHT22;10445;50.216;7.912;2022-12-18T15:45:11;-5.80;37.60
20574;DHT22;10445;50.216;7.912;2022-12-18T15:48:00;-5.90;38.90
20574;DHT22;10445;50.216;7.912;2022-12-18T15:50:49;-5.90;38.60
20574;DHT22;10445;50.216;7.912;2022-12-18T15:53:38;-5.80;38.70
20574;DHT22;10445;50.216;7.912;2022-12-18T15:56:27;-5.90;38.70
20574;DHT22;10445;50.216;7.912;2022-12-18T15:59:35;-5.80;38.80
20574;DHT22;10445;50.216;7.912;2022-12-18T16:02:24;-5.80;39.00
20574;DHT22;10445;50.216;7.912;2022-12-18T16:05:16;-5.80;39.10
20574;DHT22;10445;50.216;7.912;2022-12-18T16:08:05;-5.80;39.10
20574;DHT22;10445;50.216;7.912;2022-12-18T16:10:54;-5.80;39.20
20574;DHT22;10445;50.216;7.912;2022-12-18T16:13:42;-5.80;39.30
20574;DHT22;10445;50.216;7.912;2022-12-18T16:16:33;-5.70;39.50
20574;DHT22;10445;50.216;7.912;2022-12-18T16:19:22;-5.70;39.40
20574;DHT22;10445;50.216;7.912;2022-12-18T16:22:18;-5.70;39.30
20574;DHT22;10445;50.216;7.912;2022-12-18T16:25:16;-5.60;39.00
20574;DHT22;10445;50.216;7.912;2022-12-18T16:28:05;-5.70;39.60
20574;DHT22;10445;50.216;7.912;2022-12-18T16:30:54;-5.60;39.70
20574;DHT22;10445;50.216;7.912;2022-12-18T16:33:44;-5.60;40.00
20574;DHT22;10445;50.216;7.912;2022-12-18T16:36:32;-5.50;39.50
20574;DHT22;10445;50.216;7.912;2022-12-18T16:39:21;-5.50;40.10
20574;DHT22;10445;50.216;7.912;2022-12-18T16:42:13;-5.50;40.40
20574;DHT22;10445;50.216;7.912;2022-12-18T16:45:04;-5.50;40.60
20574;DHT22;10445;50.216;7.912;2022-12-18T16:47:53;-5.50;40.60
20574;DHT22;10445;50.216;7.912;2022-12-18T16:50:43;-5.40;40.30
20574;DHT22;10445;50.216;7.912;2022-12-18T16:53:32;-5.40;40.90
20574;DHT22;10445;50.216;7.912;2022-12-18T16:56:21;-5.40;41.00
20574;DHT22;10445;50.216;7.912;2022-12-18T16:59:11;-5.50;41.40
20574;DHT22;10445;50.216;7.912;2022-12-18T17:02:00;-5.50;42.10
20574;DHT22;10445;50.216;7.912;2022-12-18T17:04:49;-5.50;42.80
20574;DHT22;10445;50.216;7.912;2022-12-18T17:07:39;-5.50;43.50
20574;DHT22;10445;50.216;7.912;2022-12-18T17:10:28;-5.50;44.40
20574;DHT22;10445;50.216;7.912;2022-12-18T17:13:16;-5.40;44.20
20574;DHT22;10445;50.216;7.912;2022-12-18T17:16:11;-5.40;43.90
20574;DHT22;10445;50.216;7.912;2022-12-18T17:19:00;-5.40;43.80
20574;DHT22;10445;50.216;7.912;2022-12-18T17:21:50;-5.30;44.50
20574;DHT22;10445;50.216;7.912;2022-12-18T17:24:40;-5.20;43.70
20574;DHT22;10445;50.216;7.912;2022-12-18T17:27:28;-5.20;43.50
20574;DHT22;10445;50.216;7.912;2022-12-18T17:30:17;-5.20;43.60
20574;DHT22;10445;50.216;7.912;2022-12-18T17:33:06;-5.10;43.00
20574;DHT22;10445;50.216;7.912;2022-12-18T17:35:57;-5.00;42.50
20574;DHT22;10445;50.216;7.912;2022-12-18T17:38:49;-5.00;41.70
20574;DHT22;10445;50.216;7.912;2022-12-18T17:41:40;-4.90;41.90
20574;DHT22;10445;50.216;7.912;2022-12-18T17:44:29;-4.90;41.70
20574;DHT22;10445;50.216;7.912;2022-12-18T17:47:18;-4.80;41.70
20574;DHT22;10445;50.216;7.912;2022-12-18T17:50:07;-4.80;41.20
20574;DHT22;10445;50.216;7.912;2022-12-18T17:52:56;-4.80;40.40
20574;DHT22;10445;50.216;7.912;2022-12-18T17:55:53;-4.80;41.00
20574;DHT22;10445;50.216;7.912;2022-12-18T17:58:43;-4.70;40.90
20574;DHT22;10445;50.216;7.912;2022-12-18T18:01:32;-4.60;40.20
20574;DHT22;10445;50.216;7.912;2022-12-18T18:04:27;-4.60;39.60
20574;DHT22;10445;50.216;7.912;2022-12-18T18:07:15;-4.60;39.40
20574;DHT22;10445;50.216;7.912;2022-12-18T18:10:05;-4.50;40.00
20574;DHT22;10445;50.216;7.912;2022-12-18T18:12:54;-4.50;38.90